createdAt,value
2023-02-27T00:03:49.800Z,52.4
2023-02-27T00:20:27.776Z,52.3
2023-02-27T00:26:23.322Z,52.3
2023-02-27T00:32:16.994Z,52.3
2023-02-27T00:38:08.882Z,52.2
2023-02-27T00:44:01.210Z,52.2
2023-02-27T00:49:38.019Z,52.1
2023-02-27T00:55:15.201Z,52.1
2023-02-27T01:00:52.852Z,52
2023-02-27T01:06:47.031Z,52
2023-02-27T01:23:54.274Z,51.9
2023-02-27T01:29:47.049Z,51.8
2023-02-27T01:35:40.867Z,51.8
2023-02-27T01:41:33.758Z,51.8
2023-02-27T01:47:26.996Z,51.7
2023-02-27T01:53:18.918Z,51.7
2023-02-27T01:59:12.376Z,51.6
2023-02-27T02:05:05.850Z,51.6
2023-02-27T02:10:58.718Z,51.6
2023-02-27T02:16:51.107Z,52
2023-02-27T02:22:44.553Z,53.5
2023-02-27T02:28:37.531Z,55.1
2023-02-27T02:34:31.880Z,56.8
2023-02-27T02:40:24.065Z,57.6
2023-02-27T02:46:18.007Z,57.6
2023-02-27T02:51:54.475Z,57.5
2023-02-27T02:57:51.076Z,57.5
2023-02-27T03:03:43.967Z,58.4
2023-02-27T03:09:21.077Z,59.8
2023-02-27T03:15:17.208Z,59.9
2023-02-27T03:21:09.369Z,59.9
2023-02-27T03:27:04.304Z,59.9
2023-02-27T03:32:58.340Z,59.8
2023-02-27T03:38:50.925Z,59.8
2023-02-27T03:44:27.778Z,59.8
2023-02-27T03:50:20.555Z,59.7
2023-02-27T03:55:57.772Z,59.7
2023-02-27T04:01:50.731Z,59.6
2023-02-27T04:07:42.750Z,59.6
2023-02-27T04:13:35.761Z,59.5
2023-02-27T04:19:30.021Z,59.5
2023-02-27T04:25:23.276Z,59.4
2023-02-27T04:31:15.047Z,59.4
2023-02-27T04:37:08.163Z,59.4
2023-02-27T04:43:00.565Z,59.3
2023-02-27T04:48:41.279Z,59.3
2023-02-27T04:54:36.561Z,59.2
2023-02-27T05:00:29.183Z,59.1
2023-02-27T05:06:22.076Z,59.1
2023-02-27T05:12:14.781Z,59.1
2023-02-27T05:18:08.801Z,59
2023-02-27T05:23:47.694Z,58.9
2023-02-27T05:29:24.825Z,58.9
2023-02-27T05:35:17.962Z,58.8
2023-02-27T05:41:10.689Z,58.8
2023-02-27T05:47:03.833Z,58.8
2023-02-27T05:52:55.457Z,58.7
2023-02-27T05:58:47.715Z,58.6
2023-02-27T06:04:40.325Z,58.6
2023-02-27T06:16:11.478Z,58.5
2023-02-27T06:22:04.528Z,58.5
2023-02-27T06:27:57.926Z,58.4
2023-02-27T06:33:53.212Z,58.4
2023-02-27T06:39:45.284Z,58.3
2023-02-27T06:45:37.999Z,58.3
2023-02-27T06:51:32.080Z,58.2
2023-02-27T06:57:24.097Z,58.1
2023-02-27T07:03:16.730Z,58.1
2023-02-27T07:10:29.484Z,58.1
2023-02-27T07:16:25.518Z,58
2023-02-27T07:22:17.360Z,57.9
2023-02-27T07:28:10.650Z,57.9
2023-02-27T07:34:03.693Z,57.8
2023-02-27T07:39:56.306Z,57.8
2023-02-27T07:51:38.787Z,57.7
2023-02-27T07:57:32.169Z,57.6
2023-02-27T08:03:25.973Z,57.6
2023-02-27T08:09:19.233Z,57.6
2023-02-27T08:15:40.506Z,57.5
2023-02-27T08:21:35.040Z,57.4
2023-02-27T08:27:12.803Z,57.4
2023-02-27T08:33:08.072Z,57.4
2023-02-27T08:39:15.802Z,57.3
2023-02-27T08:45:08.794Z,57.3
2023-02-27T08:50:47.366Z,57.2
2023-02-27T08:56:41.221Z,57.2
2023-02-27T09:02:35.676Z,57.1
2023-02-27T09:08:29.381Z,57.1
2023-02-27T09:14:07.773Z,57.1
2023-02-27T09:20:01.541Z,57
2023-02-27T09:26:00.757Z,56.9
2023-02-27T09:32:07.543Z,56.9
2023-02-27T09:38:00.420Z,56.9
2023-02-27T09:43:53.082Z,56.8
2023-02-27T09:50:00.186Z,56.8
2023-02-27T09:55:54.192Z,56.7
2023-02-27T10:01:47.611Z,56.7
2023-02-27T10:07:41.253Z,56.6
2023-02-27T10:13:33.366Z,56.6
2023-02-27T10:19:40.053Z,56.5
2023-02-27T10:25:30.073Z,56.5
2023-02-27T10:31:20.146Z,56.4
2023-02-27T10:37:22.765Z,56.6
2023-02-27T10:43:16.104Z,56.5
2023-02-27T10:49:10.521Z,56.5
2023-02-27T10:54:48.543Z,56.9
2023-02-27T11:00:26.369Z,57.4
2023-02-27T11:06:05.003Z,57.7
2023-02-27T11:11:58.591Z,58.1
2023-02-27T11:23:28.871Z,58.8
2023-02-27T11:29:21.183Z,59.3
2023-02-27T11:35:14.282Z,59.8
2023-02-27T11:40:36.590Z,60.2
2023-02-27T11:47:57.838Z,60.2
2023-02-27T11:53:50.345Z,60.1
2023-02-27T11:59:43.406Z,60.1
2023-02-27T12:05:36.260Z,60.1
2023-02-27T12:11:28.469Z,60.1
2023-02-27T12:17:07.954Z,60.1
2023-02-27T12:22:45.126Z,60.1
2023-02-27T12:28:38.452Z,60
2023-02-27T12:34:33.040Z,59.9
2023-02-27T12:40:25.915Z,59.9
2023-02-27T12:46:03.668Z,59.9
2023-02-27T12:51:56.976Z,59.8
2023-02-27T12:57:51.984Z,59.8
2023-02-27T13:03:29.287Z,59.8
2023-02-27T13:09:22.536Z,59.8
2023-02-27T13:15:15.680Z,59.7
2023-02-27T13:20:53.241Z,59.7
2023-02-27T13:26:47.295Z,59.6
2023-02-27T13:32:59.247Z,59.6
2023-02-27T13:38:53.255Z,59.6
2023-02-27T13:44:57.762Z,59.5
2023-02-27T13:50:59.813Z,59.4
2023-02-27T13:56:50.162Z,59.4
2023-02-27T14:02:28.881Z,59.4
2023-02-27T14:08:20.103Z,59.3
2023-02-27T14:13:52.092Z,59.3
2023-02-27T14:19:57.690Z,59.2
2023-02-27T14:26:07.753Z,59.2
2023-02-27T14:32:01.760Z,59.1
2023-02-27T14:38:11.035Z,59.1
2023-02-27T14:43:55.381Z,59.1
2023-02-27T14:49:51.553Z,59
2023-02-27T14:55:44.581Z,58.9
2023-02-27T15:01:46.808Z,58.9
2023-02-27T15:07:41.743Z,58.8
2023-02-27T15:13:43.470Z,58.8
2023-02-27T15:19:45.294Z,58.7
2023-02-27T15:25:39.595Z,58.7
2023-02-27T15:31:33.775Z,58.6
2023-02-27T15:43:06.317Z,58.5
2023-02-27T15:48:59.302Z,58.4
2023-02-27T15:54:52.160Z,58.4
2023-02-27T16:00:39.823Z,58.3
2023-02-27T16:06:21.398Z,58.3
2023-02-27T16:12:14.599Z,58.3
2023-02-27T16:18:08.394Z,58.2
2023-02-27T16:24:01.769Z,58.1
2023-02-27T16:29:55.115Z,58.1
2023-02-27T16:35:48.684Z,58.1
2023-02-27T16:41:45.090Z,58
2023-02-27T16:47:23.011Z,57.9
2023-02-27T16:53:31.328Z,57.9
2023-02-27T16:59:31.718Z,57.8
2023-02-27T17:16:45.569Z,57.7
2023-02-27T17:22:39.713Z,57.6
2023-02-27T17:28:33.114Z,57.6
2023-02-27T17:34:27.638Z,57.6
2023-02-27T17:40:20.334Z,57.4
2023-02-27T17:45:57.785Z,57.4
2023-02-27T17:51:51.798Z,57.4
2023-02-27T17:57:44.052Z,57.3
2023-02-27T18:03:37.048Z,57.3
2023-02-27T18:09:29.333Z,57.3
2023-02-27T18:15:22.944Z,57.2
2023-02-27T18:21:16.972Z,57.1
2023-02-27T18:27:19.625Z,57.1
2023-02-27T18:33:11.777Z,57
2023-02-27T18:39:05.047Z,56.9
2023-02-27T18:44:58.786Z,56.9
2023-02-27T18:50:53.392Z,56.9
2023-02-27T18:56:45.931Z,56.8
2023-02-27T19:02:40.449Z,56.8
2023-02-27T19:08:35.026Z,56.8
2023-02-27T19:14:26.714Z,56.7
2023-02-27T19:20:20.386Z,56.6
2023-02-27T19:26:12.368Z,56.6
2023-02-27T19:31:50.800Z,56.6
2023-02-27T19:37:45.038Z,56.5
2023-02-27T19:43:22.197Z,56.4
2023-02-27T19:49:15.901Z,56.4
2023-02-27T19:55:08.586Z,56.4
2023-02-27T20:01:02.492Z,56.3
2023-02-27T20:06:55.666Z,56.3
2023-02-27T20:12:48.117Z,56.2
2023-02-27T20:18:41.793Z,56.1
2023-02-27T20:24:34.020Z,56.1
2023-02-27T20:30:27.594Z,56.1
2023-02-27T20:36:21.936Z,56
2023-02-27T20:42:14.023Z,55.9
2023-02-27T20:48:06.563Z,55.9
2023-02-27T20:53:59.783Z,55.9
2023-02-27T20:59:52.473Z,55.8
2023-02-27T21:05:54.567Z,55.8
2023-02-27T21:11:49.664Z,55.8
2023-02-27T21:17:41.800Z,55.7
2023-02-27T21:23:34.905Z,55.6
2023-02-27T21:29:27.401Z,55.6
2023-02-27T21:35:22.564Z,55.5
2023-02-27T21:41:15.733Z,55.4
2023-02-27T21:47:07.923Z,55.4
2023-02-27T21:53:18.104Z,55.4
2023-02-27T21:59:10.759Z,55.3
2023-02-27T22:05:03.053Z,55.3
2023-02-27T22:10:56.575Z,55.3
2023-02-27T22:16:50.105Z,55.2
2023-02-27T22:22:41.651Z,55.1
2023-02-27T22:28:34.233Z,55.1
2023-02-27T22:34:30.059Z,55.1
2023-02-27T22:40:22.270Z,55
2023-02-27T22:46:15.204Z,54.9
2023-02-27T22:52:08.390Z,54.9
2023-02-27T22:57:47.668Z,54.9
2023-02-27T23:03:39.890Z,54.8
2023-02-27T23:09:33.436Z,54.8
2023-02-27T23:15:26.628Z,54.8
2023-02-27T23:21:33.486Z,54.7
2023-02-27T23:27:41.968Z,54.6
2023-02-27T23:33:19.136Z,54.6
2023-02-27T23:39:20.298Z,54.6
2023-02-27T23:45:12.518Z,54.5
2023-02-27T23:51:04.648Z,54.4
2023-02-27T23:56:57.421Z,54.4
